sensor_id;sensor_type;location;lat;lon;timestamp;P1;durP1;ratioP1;P2;durP2;ratioP2
25609;SDS011;13479;49.044;8.716;2023-04-06T04:01:51;16.93;;;8.30;;
25609;SDS011;13479;49.044;8.716;2023-04-06T04:04:17;18.60;;;8.23;;
25609;SDS011;13479;49.044;8.716;2023-04-06T04:06:42;15.70;;;8.27;;
25609;SDS011;13479;49.044;8.716;2023-04-06T04:09:07;17.10;;;8.53;;
25609;SDS011;13479;49.044;8.716;2023-04-06T04:11:32;20.17;;;9.17;;
25609;SDS011;13479;49.044;8.716;2023-04-06T04:13:58;15.77;;;7.77;;
25609;SDS011;13479;49.044;8.716;2023-04-06T04:16:23;17.13;;;8.17;;
25609;SDS011;13479;49.044;8.716;2023-04-06T04:18:48;16.30;;;8.67;;
25609;SDS011;13479;49.044;8.716;2023-04-06T04:21:14;14.43;;;8.53;;
25609;SDS011;13479;49.044;8.716;2023-04-06T04:23:39;17.40;;;9.43;;
25609;SDS011;13479;49.044;8.716;2023-04-06T04:26:05;16.37;;;8.80;;
25609;SDS011;13479;49.044;8.716;2023-04-06T04:28:30;14.43;;;8.23;;
25609;SDS011;13479;49.044;8.716;2023-04-06T04:30:56;20.17;;;9.20;;
25609;SDS011;13479;49.044;8.716;2023-04-06T04:33:21;22.80;;;9.17;;
25609;SDS011;13479;49.044;8.716;2023-04-06T04:35:46;25.60;;;9.47;;
25609;SDS011;13479;49.044;8.716;2023-04-06T04:38:12;27.93;;;11.53;;
25609;SDS011;13479;49.044;8.716;2023-04-06T04:40:37;21.43;;;10.73;;
25609;SDS011;13479;49.044;8.716;2023-04-06T04:43:02;24.03;;;11.23;;
25609;SDS011;13479;49.044;8.716;2023-04-06T04:45:28;22.73;;;11.07;;
25609;SDS011;13479;49.044;8.716;2023-04-06T04:47:53;19.27;;;9.63;;
25609;SDS011;13479;49.044;8.716;2023-04-06T04:50:18;19.13;;;9.17;;
25609;SDS011;13479;49.044;8.716;2023-04-06T04:52:44;18.17;;;9.40;;
25609;SDS011;13479;49.044;8.716;2023-04-06T04:55:09;18.97;;;9.07;;
25609;SDS011;13479;49.044;8.716;2023-04-06T04:57:34;22.40;;;9.27;;
25609;SDS011;13479;49.044;8.716;2023-04-06T05:00:00;24.23;;;9.97;;
25609;SDS011;13479;49.044;8.716;2023-04-06T05:02:26;23.40;;;9.63;;
25609;SDS011;13479;49.044;8.716;2023-04-06T05:04:51;25.93;;;10.60;;
25609;SDS011;13479;49.044;8.716;2023-04-06T05:07:17;23.57;;;9.93;;
25609;SDS011;13479;49.044;8.716;2023-04-06T05:09:43;21.37;;;10.17;;
25609;SDS011;13479;49.044;8.716;2023-04-06T05:12:09;24.30;;;10.80;;
25609;SDS011;13479;49.044;8.716;2023-04-06T05:14:35;23.00;;;12.10;;
25609;SDS011;13479;49.044;8.716;2023-04-06T05:17:00;22.90;;;11.10;;
25609;SDS011;13479;49.044;8.716;2023-04-06T05:19:26;23.60;;;11.00;;
25609;SDS011;13479;49.044;8.716;2023-04-06T05:21:51;22.10;;;10.70;;
25609;SDS011;13479;49.044;8.716;2023-04-06T05:24:16;22.07;;;10.87;;
25609;SDS011;13479;49.044;8.716;2023-04-06T05:26:42;20.27;;;10.03;;
25609;SDS011;13479;49.044;8.716;2023-04-06T05:29:07;18.90;;;9.63;;
25609;SDS011;13479;49.044;8.716;2023-04-06T05:31:32;19.87;;;10.27;;
25609;SDS011;13479;49.044;8.716;2023-04-06T05:33:58;26.13;;;14.33;;
25609;SDS011;13479;49.044;8.716;2023-04-06T05:36:23;1999.90;;;999.90;;
25609;SDS011;13479;49.044;8.716;2023-04-06T05:38:48;1999.90;;;999.90;;
25609;SDS011;13479;49.044;8.716;2023-04-06T05:41:15;1999.90;;;999.90;;
25609;SDS011;13479;49.044;8.716;2023-04-06T05:43:41;1999.90;;;999.90;;
25609;SDS011;13479;49.044;8.716;2023-04-06T05:46:06;1999.90;;;999.90;;
25609;SDS011;13479;49.044;8.716;2023-04-06T05:48:32;1999.90;;;999.90;;
25609;SDS011;13479;49.044;8.716;2023-04-06T05:50:57;1999.90;;;999.90;;
25609;SDS011;13479;49.044;8.716;2023-04-06T05:53:22;1999.90;;;999.90;;
25609;SDS011;13479;49.044;8.716;2023-04-06T05:55:51;22.75;;;20.55;;
25609;SDS011;13479;49.044;8.716;2023-04-06T05:58:16;18.58;;;15.88;;
25609;SDS011;13479;49.044;8.716;2023-04-06T06:00:42;16.38;;;11.60;;
25609;SDS011;13479;49.044;8.716;2023-04-06T06:03:07;14.93;;;9.07;;
25609;SDS011;13479;49.044;8.716;2023-04-06T06:05:33;13.20;;;8.55;;
25609;SDS011;13479;49.044;8.716;2023-04-06T06:07:59;13.85;;;8.45;;
25609;SDS011;13479;49.044;8.716;2023-04-06T06:10:27;16.58;;;8.55;;
25609;SDS011;13479;49.044;8.716;2023-04-06T06:12:52;13.90;;;8.63;;
25609;SDS011;13479;49.044;8.716;2023-04-06T06:15:18;14.85;;;8.30;;
25609;SDS011;13479;49.044;8.716;2023-04-06T06:17:43;14.52;;;8.65;;
25609;SDS011;13479;49.044;8.716;2023-04-06T06:20:10;13.50;;;8.48;;
25609;SDS011;13479;49.044;8.716;2023-04-06T06:22:35;14.27;;;8.80;;
25609;SDS011;13479;49.044;8.716;2023-04-06T06:25:01;12.32;;;8.27;;
25609;SDS011;13479;49.044;8.716;2023-04-06T06:27:27;13.68;;;8.60;;
25609;SDS011;13479;49.044;8.716;2023-04-06T06:29:52;16.17;;;9.05;;
25609;SDS011;13479;49.044;8.716;2023-04-06T06:32:18;13.40;;;9.23;;
25609;SDS011;13479;49.044;8.716;2023-04-06T06:34:43;11.68;;;7.57;;
25609;SDS011;13479;49.044;8.716;2023-04-06T06:37:09;12.88;;;7.63;;
25609;SDS011;13479;49.044;8.716;2023-04-06T06:39:34;13.55;;;7.93;;
25609;SDS011;13479;49.044;8.716;2023-04-06T06:42:00;13.88;;;7.57;;
25609;SDS011;13479;49.044;8.716;2023-04-06T06:44:26;10.98;;;7.40;;
25609;SDS011;13479;49.044;8.716;2023-04-06T06:46:52;11.20;;;7.15;;
25609;SDS011;13479;49.044;8.716;2023-04-06T06:49:17;13.55;;;7.25;;
25609;SDS011;13479;49.044;8.716;2023-04-06T06:51:43;11.82;;;7.20;;
25609;SDS011;13479;49.044;8.716;2023-04-06T06:54:09;12.13;;;6.78;;
25609;SDS011;13479;49.044;8.716;2023-04-06T06:56:34;12.82;;;8.18;;
25609;SDS011;13479;49.044;8.716;2023-04-06T06:59:01;12.63;;;7.93;;
25609;SDS011;13479;49.044;8.716;2023-04-06T07:01:27;10.88;;;6.97;;
25609;SDS011;13479;49.044;8.716;2023-04-06T07:03:52;9.23;;;7.00;;
25609;SDS011;13479;49.044;8.716;2023-04-06T07:06:17;12.75;;;6.80;;
25609;SDS011;13479;49.044;8.716;2023-04-06T07:08:43;12.48;;;7.57;;
25609;SDS011;13479;49.044;8.716;2023-04-06T07:11:08;11.05;;;5.75;;
25609;SDS011;13479;49.044;8.716;2023-04-06T07:13:33;14.60;;;7.50;;
25609;SDS011;13479;49.044;8.716;2023-04-06T07:15:59;11.52;;;6.97;;
25609;SDS011;13479;49.044;8.716;2023-04-06T07:18:24;10.27;;;7.45;;
25609;SDS011;13479;49.044;8.716;2023-04-06T07:20:50;12.25;;;6.97;;
25609;SDS011;13479;49.044;8.716;2023-04-06T07:23:15;12.00;;;7.43;;
25609;SDS011;13479;49.044;8.716;2023-04-06T07:25:41;14.15;;;7.28;;
25609;SDS011;13479;49.044;8.716;2023-04-06T07:28:06;12.18;;;6.28;;
25609;SDS011;13479;49.044;8.716;2023-04-06T07:30:32;11.82;;;6.97;;
25609;SDS011;13479;49.044;8.716;2023-04-06T07:32:57;12.32;;;6.97;;
25609;SDS011;13479;49.044;8.716;2023-04-06T07:35:24;11.05;;;6.20;;
25609;SDS011;13479;49.044;8.716;2023-04-06T07:37:51;12.48;;;6.28;;
25609;SDS011;13479;49.044;8.716;2023-04-06T07:40:17;12.05;;;6.28;;
25609;SDS011;13479;49.044;8.716;2023-04-06T07:42:43;7.55;;;5.13;;
25609;SDS011;13479;49.044;8.716;2023-04-06T07:45:08;8.20;;;4.43;;
25609;SDS011;13479;49.044;8.716;2023-04-06T07:47:34;7.63;;;5.10;;
25609;SDS011;13479;49.044;8.716;2023-04-06T07:49:59;6.15;;;4.22;;
25609;SDS011;13479;49.044;8.716;2023-04-06T07:52:24;5.50;;;3.50;;
25609;SDS011;13479;49.044;8.716;2023-04-06T07:54:50;7.75;;;4.63;;
25609;SDS011;13479;49.044;8.716;2023-04-06T07:57:15;9.52;;;5.05;;
25609;SDS011;13479;49.044;8.716;2023-04-06T07:59:41;7.20;;;4.28;;
25609;SDS011;13479;49.044;8.716;2023-04-06T08:02:06;7.00;;;5.13;;
25609;SDS011;13479;49.044;8.716;2023-04-06T08:04:31;7.93;;;4.82;;
25609;SDS011;13479;49.044;8.716;2023-04-06T08:06:57;7.28;;;4.65;;
25609;SDS011;13479;49.044;8.716;2023-04-06T08:09:22;10.40;;;4.93;;
25609;SDS011;13479;49.044;8.716;2023-04-06T08:11:47;7.50;;;4.68;;
25609;SDS011;13479;49.044;8.716;2023-04-06T08:14:14;10.05;;;5.22;;
25609;SDS011;13479;49.044;8.716;2023-04-06T08:16:40;8.25;;;5.05;;
25609;SDS011;13479;49.044;8.716;2023-04-06T08:19:06;8.43;;;4.68;;
25609;SDS011;13479;49.044;8.716;2023-04-06T08:21:34;8.18;;;4.80;;
25609;SDS011;13479;49.044;8.716;2023-04-06T08:24:00;7.40;;;4.68;;
25609;SDS011;13479;49.044;8.716;2023-04-06T08:26:25;7.10;;;4.50;;
25609;SDS011;13479;49.044;8.716;2023-04-06T08:28:51;10.02;;;4.60;;
25609;SDS011;13479;49.044;8.716;2023-04-06T08:31:16;13.00;;;5.47;;
25609;SDS011;13479;49.044;8.716;2023-04-06T08:33:41;7.60;;;4.32;;
25609;SDS011;13479;49.044;8.716;2023-04-06T08:36:11;8.48;;;5.20;;
25609;SDS011;13479;49.044;8.716;2023-04-06T08:38:37;9.43;;;5.50;;
25609;SDS011;13479;49.044;8.716;2023-04-06T08:41:07;8.27;;;5.57;;
25609;SDS011;13479;49.044;8.716;2023-04-06T08:43:34;8.15;;;4.68;;
25609;SDS011;13479;49.044;8.716;2023-04-06T08:46:14;7.57;;;4.60;;
25609;SDS011;13479;49.044;8.716;2023-04-06T08:48:40;7.68;;;4.40;;
25609;SDS011;13479;49.044;8.716;2023-04-06T08:51:07;8.98;;;4.90;;
25609;SDS011;13479;49.044;8.716;2023-04-06T08:53:33;9.80;;;5.05;;
25609;SDS011;13479;49.044;8.716;2023-04-06T08:55:58;9.27;;;4.95;;
25609;SDS011;13479;49.044;8.716;2023-04-06T08:58:25;7.32;;;4.97;;
25609;SDS011;13479;49.044;8.716;2023-04-06T09:00:53;7.60;;;4.90;;
25609;SDS011;13479;49.044;8.716;2023-04-06T09:03:19;7.70;;;5.00;;
25609;SDS011;13479;49.044;8.716;2023-04-06T09:05:45;7.88;;;5.10;;
25609;SDS011;13479;49.044;8.716;2023-04-06T09:08:12;7.78;;;5.20;;
25609;SDS011;13479;49.044;8.716;2023-04-06T09:10:41;8.20;;;4.82;;
25609;SDS011;13479;49.044;8.716;2023-04-06T09:13:07;7.97;;;5.00;;
25609;SDS011;13479;49.044;8.716;2023-04-06T09:15:34;7.38;;;4.93;;
25609;SDS011;13479;49.044;8.716;2023-04-06T09:18:00;8.23;;;5.13;;
25609;SDS011;13479;49.044;8.716;2023-04-06T09:20:26;6.47;;;4.72;;
25609;SDS011;13479;49.044;8.716;2023-04-06T09:22:53;10.63;;;5.65;;
25609;SDS011;13479;49.044;8.716;2023-04-06T09:25:20;7.20;;;4.78;;
25609;SDS011;13479;49.044;8.716;2023-04-06T09:27:48;6.28;;;4.85;;
25609;SDS011;13479;49.044;8.716;2023-04-06T09:30:14;7.45;;;5.13;;
25609;SDS011;13479;49.044;8.716;2023-04-06T09:32:54;8.07;;;4.53;;
25609;SDS011;13479;49.044;8.716;2023-04-06T09:35:21;6.28;;;4.75;;
25609;SDS011;13479;49.044;8.716;2023-04-06T09:37:48;7.55;;;4.63;;
25609;SDS011;13479;49.044;8.716;2023-04-06T09:40:15;8.40;;;4.88;;
25609;SDS011;13479;49.044;8.716;2023-04-06T09:42:42;7.00;;;4.13;;
25609;SDS011;13479;49.044;8.716;2023-04-06T09:45:11;7.32;;;4.60;;
25609;SDS011;13479;49.044;8.716;2023-04-06T09:47:36;6.95;;;4.25;;
25609;SDS011;13479;49.044;8.716;2023-04-06T09:50:02;4.57;;;3.60;;
25609;SDS011;13479;49.044;8.716;2023-04-06T09:52:32;8.15;;;4.55;;
25609;SDS011;13479;49.044;8.716;2023-04-06T09:55:01;6.72;;;4.40;;
25609;SDS011;13479;49.044;8.716;2023-04-06T09:57:30;9.00;;;4.30;;
25609;SDS011;13479;49.044;8.716;2023-04-06T10:00:04;7.78;;;3.75;;
25609;SDS011;13479;49.044;8.716;2023-04-06T10:05:50;6.70;;;3.85;;
25609;SDS011;13479;49.044;8.716;2023-04-06T10:08:18;9.70;;;4.18;;
25609;SDS011;13479;49.044;8.716;2023-04-06T10:10:45;10.85;;;4.60;;
25609;SDS011;13479;49.044;8.716;2023-04-06T10:13:12;9.18;;;4.93;;
25609;SDS011;13479;49.044;8.716;2023-04-06T10:15:37;8.18;;;5.13;;
25609;SDS011;13479;49.044;8.716;2023-04-06T10:18:03;6.60;;;4.60;;
25609;SDS011;13479;49.044;8.716;2023-04-06T10:20:33;7.88;;;4.53;;
25609;SDS011;13479;49.044;8.716;2023-04-06T10:23:12;9.80;;;4.65;;
25609;SDS011;13479;49.044;8.716;2023-04-06T10:25:51;8.50;;;5.30;;
25609;SDS011;13479;49.044;8.716;2023-04-06T10:28:18;7.80;;;5.28;;
25609;SDS011;13479;49.044;8.716;2023-04-06T10:30:44;7.45;;;4.70;;
25609;SDS011;13479;49.044;8.716;2023-04-06T10:33:17;6.78;;;4.90;;
25609;SDS011;13479;49.044;8.716;2023-04-06T10:35:44;9.07;;;5.05;;
25609;SDS011;13479;49.044;8.716;2023-04-06T10:38:10;7.53;;;5.35;;
25609;SDS011;13479;49.044;8.716;2023-04-06T10:40:39;9.60;;;5.38;;
25609;SDS011;13479;49.044;8.716;2023-04-06T10:43:08;9.48;;;5.07;;
25609;SDS011;13479;49.044;8.716;2023-04-06T10:45:34;7.90;;;5.28;;
25609;SDS011;13479;49.044;8.716;2023-04-06T10:48:00;7.10;;;4.93;;
25609;SDS011;13479;49.044;8.716;2023-04-06T10:50:25;8.52;;;5.28;;
25609;SDS011;13479;49.044;8.716;2023-04-06T10:53:01;10.30;;;5.13;;
25609;SDS011;13479;49.044;8.716;2023-04-06T10:55:27;8.13;;;4.85;;
25609;SDS011;13479;49.044;8.716;2023-04-06T10:57:54;7.47;;;5.30;;
25609;SDS011;13479;49.044;8.716;2023-04-06T11:00:20;9.85;;;5.45;;
25609;SDS011;13479;49.044;8.716;2023-04-06T11:02:45;8.35;;;5.85;;
25609;SDS011;13479;49.044;8.716;2023-04-06T11:05:11;7.75;;;5.20;;
25609;SDS011;13479;49.044;8.716;2023-04-06T11:07:40;7.82;;;4.50;;
25609;SDS011;13479;49.044;8.716;2023-04-06T11:10:06;10.80;;;5.40;;
25609;SDS011;13479;49.044;8.716;2023-04-06T11:12:33;7.28;;;5.25;;
25609;SDS011;13479;49.044;8.716;2023-04-06T11:15:02;6.93;;;4.85;;
25609;SDS011;13479;49.044;8.716;2023-04-06T11:17:35;7.50;;;5.20;;
25609;SDS011;13479;49.044;8.716;2023-04-06T11:20:02;6.97;;;5.18;;
25609;SDS011;13479;49.044;8.716;2023-04-06T11:22:29;6.68;;;5.35;;
25609;SDS011;13479;49.044;8.716;2023-04-06T11:25:05;8.60;;;6.18;;
25609;SDS011;13479;49.044;8.716;2023-04-06T11:27:31;11.52;;;5.70;;
25609;SDS011;13479;49.044;8.716;2023-04-06T11:30:01;9.05;;;5.90;;
25609;SDS011;13479;49.044;8.716;2023-04-06T11:32:27;8.18;;;5.35;;
25609;SDS011;13479;49.044;8.716;2023-04-06T11:34:53;7.13;;;5.57;;
25609;SDS011;13479;49.044;8.716;2023-04-06T11:37:18;10.30;;;6.60;;
25609;SDS011;13479;49.044;8.716;2023-04-06T11:39:48;8.15;;;5.80;;
25609;SDS011;13479;49.044;8.716;2023-04-06T11:42:21;9.23;;;5.53;;
25609;SDS011;13479;49.044;8.716;2023-04-06T11:44:53;9.20;;;5.47;;
25609;SDS011;13479;49.044;8.716;2023-04-06T11:47:19;8.00;;;5.05;;
25609;SDS011;13479;49.044;8.716;2023-04-06T11:49:51;8.90;;;5.45;;
25609;SDS011;13479;49.044;8.716;2023-04-06T11:52:18;9.23;;;5.88;;
25609;SDS011;13479;49.044;8.716;2023-04-06T11:54:44;10.30;;;5.97;;
25609;SDS011;13479;49.044;8.716;2023-04-06T11:57:10;10.45;;;5.93;;
25609;SDS011;13479;49.044;8.716;2023-04-06T11:59:35;10.38;;;5.68;;
25609;SDS011;13479;49.044;8.716;2023-04-06T12:02:01;10.50;;;5.88;;
25609;SDS011;13479;49.044;8.716;2023-04-06T12:04:28;9.30;;;5.43;;
25609;SDS011;13479;49.044;8.716;2023-04-06T12:06:54;9.23;;;5.95;;
25609;SDS011;13479;49.044;8.716;2023-04-06T12:09:19;8.80;;;6.15;;
25609;SDS011;13479;49.044;8.716;2023-04-06T12:11:45;7.75;;;5.22;;
25609;SDS011;13479;49.044;8.716;2023-04-06T12:14:11;8.57;;;5.40;;
25609;SDS011;13479;49.044;8.716;2023-04-06T12:16:36;10.23;;;6.00;;
25609;SDS011;13479;49.044;8.716;2023-04-06T12:19:01;8.10;;;5.47;;
25609;SDS011;13479;49.044;8.716;2023-04-06T12:21:27;8.82;;;5.85;;
25609;SDS011;13479;49.044;8.716;2023-04-06T12:23:53;10.25;;;6.30;;
25609;SDS011;13479;49.044;8.716;2023-04-06T12:26:19;11.75;;;5.80;;
25609;SDS011;13479;49.044;8.716;2023-04-06T12:28:45;10.43;;;5.85;;
25609;SDS011;13479;49.044;8.716;2023-04-06T12:31:17;8.95;;;5.78;;
25609;SDS011;13479;49.044;8.716;2023-04-06T12:33:48;8.60;;;4.95;;
25609;SDS011;13479;49.044;8.716;2023-04-06T12:36:14;10.35;;;5.95;;
25609;SDS011;13479;49.044;8.716;2023-04-06T12:38:40;9.38;;;5.45;;
25609;SDS011;13479;49.044;8.716;2023-04-06T12:41:06;8.98;;;5.53;;
25609;SDS011;13479;49.044;8.716;2023-04-06T12:43:32;8.52;;;5.13;;
25609;SDS011;13479;49.044;8.716;2023-04-06T12:45:57;8.38;;;5.70;;
25609;SDS011;13479;49.044;8.716;2023-04-06T12:48:23;8.73;;;5.50;;
25609;SDS011;13479;49.044;8.716;2023-04-06T12:50:58;9.95;;;5.70;;
25609;SDS011;13479;49.044;8.716;2023-04-06T12:53:25;9.63;;;5.90;;
25609;SDS011;13479;49.044;8.716;2023-04-06T12:55:50;10.75;;;6.45;;
25609;SDS011;13479;49.044;8.716;2023-04-06T12:58:16;9.13;;;6.32;;
25609;SDS011;13479;49.044;8.716;2023-04-06T13:00:42;15.02;;;5.75;;
25609;SDS011;13479;49.044;8.716;2023-04-06T13:03:07;13.98;;;5.50;;
25609;SDS011;13479;49.044;8.716;2023-04-06T13:05:33;9.38;;;5.57;;
25609;SDS011;13479;49.044;8.716;2023-04-06T13:07:58;10.35;;;6.10;;
25609;SDS011;13479;49.044;8.716;2023-04-06T13:10:23;8.70;;;5.85;;
25609;SDS011;13479;49.044;8.716;2023-04-06T13:12:49;11.90;;;6.60;;
25609;SDS011;13479;49.044;8.716;2023-04-06T13:15:14;11.95;;;6.15;;
25609;SDS011;13479;49.044;8.716;2023-04-06T13:17:40;10.43;;;6.45;;
25609;SDS011;13479;49.044;8.716;2023-04-06T13:20:05;11.40;;;6.05;;
25609;SDS011;13479;49.044;8.716;2023-04-06T13:22:31;8.40;;;5.50;;
25609;SDS011;13479;49.044;8.716;2023-04-06T13:24:56;11.18;;;6.10;;
25609;SDS011;13479;49.044;8.716;2023-04-06T13:27:22;10.63;;;6.35;;
25609;SDS011;13479;49.044;8.716;2023-04-06T13:29:47;9.52;;;4.63;;
25609;SDS011;13479;49.044;8.716;2023-04-06T13:32:13;7.47;;;4.75;;
25609;SDS011;13479;49.044;8.716;2023-04-06T13:34:38;8.43;;;4.85;;
25609;SDS011;13479;49.044;8.716;2023-04-06T13:37:05;7.60;;;4.60;;
25609;SDS011;13479;49.044;8.716;2023-04-06T13:39:31;7.82;;;4.65;;
25609;SDS011;13479;49.044;8.716;2023-04-06T13:41:56;10.18;;;5.32;;
25609;SDS011;13479;49.044;8.716;2023-04-06T13:44:22;9.40;;;5.85;;
25609;SDS011;13479;49.044;8.716;2023-04-06T13:46:47;8.20;;;4.90;;
25609;SDS011;13479;49.044;8.716;2023-04-06T13:49:13;8.25;;;5.07;;
25609;SDS011;13479;49.044;8.716;2023-04-06T13:51:38;9.15;;;5.25;;
25609;SDS011;13479;49.044;8.716;2023-04-06T13:54:04;8.02;;;5.03;;
25609;SDS011;13479;49.044;8.716;2023-04-06T13:56:29;8.15;;;5.10;;
25609;SDS011;13479;49.044;8.716;2023-04-06T13:58:55;9.10;;;5.20;;
25609;SDS011;13479;49.044;8.716;2023-04-06T14:01:21;10.82;;;6.10;;
25609;SDS011;13479;49.044;8.716;2023-04-06T14:03:47;9.25;;;5.45;;
25609;SDS011;13479;49.044;8.716;2023-04-06T14:06:13;7.97;;;5.13;;
25609;SDS011;13479;49.044;8.716;2023-04-06T14:08:39;9.20;;;5.32;;
25609;SDS011;13479;49.044;8.716;2023-04-06T14:11:04;13.50;;;5.32;;
25609;SDS011;13479;49.044;8.716;2023-04-06T14:13:32;8.90;;;5.10;;
25609;SDS011;13479;49.044;8.716;2023-04-06T14:15:58;8.80;;;4.32;;
25609;SDS011;13479;49.044;8.716;2023-04-06T14:18:23;8.68;;;4.53;;
25609;SDS011;13479;49.044;8.716;2023-04-06T14:20:55;9.68;;;4.72;;
25609;SDS011;13479;49.044;8.716;2023-04-06T14:23:21;9.48;;;4.72;;
25609;SDS011;13479;49.044;8.716;2023-04-06T14:25:46;7.97;;;5.00;;
25609;SDS011;13479;49.044;8.716;2023-04-06T14:28:12;10.70;;;4.82;;
25609;SDS011;13479;49.044;8.716;2023-04-06T14:30:37;11.05;;;5.28;;
25609;SDS011;13479;49.044;8.716;2023-04-06T14:33:03;8.60;;;5.30;;
25609;SDS011;13479;49.044;8.716;2023-04-06T14:35:28;9.68;;;5.38;;
25609;SDS011;13479;49.044;8.716;2023-04-06T14:37:55;9.27;;;5.63;;
25609;SDS011;13479;49.044;8.716;2023-04-06T14:40:22;8.85;;;5.40;;
25609;SDS011;13479;49.044;8.716;2023-04-06T14:42:48;8.20;;;4.70;;
25609;SDS011;13479;49.044;8.716;2023-04-06T14:45:15;7.57;;;4.35;;
25609;SDS011;13479;49.044;8.716;2023-04-06T14:47:42;6.80;;;4.22;;
25609;SDS011;13479;49.044;8.716;2023-04-06T14:50:07;8.98;;;4.65;;
25609;SDS011;13479;49.044;8.716;2023-04-06T14:52:33;7.35;;;4.38;;
25609;SDS011;13479;49.044;8.716;2023-04-06T14:54:58;8.48;;;4.47;;
25609;SDS011;13479;49.044;8.716;2023-04-06T14:57:23;7.40;;;4.35;;
25609;SDS011;13479;49.044;8.716;2023-04-06T14:59:49;8.02;;;4.03;;
25609;SDS011;13479;49.044;8.716;2023-04-06T15:02:18;6.50;;;3.85;;
25609;SDS011;13479;49.044;8.716;2023-04-06T15:04:43;6.90;;;4.43;;
25609;SDS011;13479;49.044;8.716;2023-04-06T15:07:08;6.70;;;3.80;;
25609;SDS011;13479;49.044;8.716;2023-04-06T15:09:33;5.78;;;4.05;;
25609;SDS011;13479;49.044;8.716;2023-04-06T15:12:00;8.57;;;4.53;;
25609;SDS011;13479;49.044;8.716;2023-04-06T15:14:26;7.93;;;4.72;;
25609;SDS011;13479;49.044;8.716;2023-04-06T15:16:51;9.48;;;4.40;;
25609;SDS011;13479;49.044;8.716;2023-04-06T15:19:16;7.20;;;4.30;;
25609;SDS011;13479;49.044;8.716;2023-04-06T15:21:42;7.68;;;4.30;;
25609;SDS011;13479;49.044;8.716;2023-04-06T15:24:07;7.30;;;4.38;;
25609;SDS011;13479;49.044;8.716;2023-04-06T15:26:33;5.75;;;4.05;;
25609;SDS011;13479;49.044;8.716;2023-04-06T15:29:00;6.82;;;3.95;;
25609;SDS011;13479;49.044;8.716;2023-04-06T15:31:26;7.07;;;4.00;;
25609;SDS011;13479;49.044;8.716;2023-04-06T15:33:51;5.68;;;3.35;;
25609;SDS011;13479;49.044;8.716;2023-04-06T15:36:23;6.03;;;3.70;;
25609;SDS011;13479;49.044;8.716;2023-04-06T15:38:51;6.40;;;3.47;;
25609;SDS011;13479;49.044;8.716;2023-04-06T15:41:16;9.23;;;4.28;;
25609;SDS011;13479;49.044;8.716;2023-04-06T15:43:42;5.38;;;3.13;;
25609;SDS011;13479;49.044;8.716;2023-04-06T15:46:07;6.68;;;3.72;;
25609;SDS011;13479;49.044;8.716;2023-04-06T15:48:33;6.35;;;3.40;;
25609;SDS011;13479;49.044;8.716;2023-04-06T15:50:58;8.48;;;3.95;;
25609;SDS011;13479;49.044;8.716;2023-04-06T15:53:24;10.57;;;4.85;;
25609;SDS011;13479;49.044;8.716;2023-04-06T15:55:49;8.70;;;4.53;;
25609;SDS011;13479;49.044;8.716;2023-04-06T15:58:15;7.40;;;4.32;;
25609;SDS011;13479;49.044;8.716;2023-04-06T16:00:40;9.77;;;4.95;;
25609;SDS011;13479;49.044;8.716;2023-04-06T16:03:05;9.75;;;5.15;;
25609;SDS011;13479;49.044;8.716;2023-04-06T16:05:30;10.10;;;4.90;;
25609;SDS011;13479;49.044;8.716;2023-04-06T16:07:56;10.55;;;5.72;;
25609;SDS011;13479;49.044;8.716;2023-04-06T16:10:21;10.63;;;5.68;;
25609;SDS011;13479;49.044;8.716;2023-04-06T16:12:47;9.45;;;5.53;;
25609;SDS011;13479;49.044;8.716;2023-04-06T16:15:12;9.48;;;4.53;;
25609;SDS011;13479;49.044;8.716;2023-04-06T16:17:37;12.63;;;5.13;;
25609;SDS011;13479;49.044;8.716;2023-04-06T16:20:03;9.73;;;5.60;;
25609;SDS011;13479;49.044;8.716;2023-04-06T16:22:28;10.18;;;5.20;;
25609;SDS011;13479;49.044;8.716;2023-04-06T16:24:54;9.77;;;4.85;;
25609;SDS011;13479;49.044;8.716;2023-04-06T16:27:19;11.88;;;5.38;;
25609;SDS011;13479;49.044;8.716;2023-04-06T16:29:45;11.48;;;5.35;;
25609;SDS011;13479;49.044;8.716;2023-04-06T16:32:10;11.88;;;5.75;;
25609;SDS011;13479;49.044;8.716;2023-04-06T16:34:37;12.23;;;5.88;;
25609;SDS011;13479;49.044;8.716;2023-04-06T16:37:03;11.15;;;5.32;;
25609;SDS011;13479;49.044;8.716;2023-04-06T16:39:28;10.52;;;5.63;;
25609;SDS011;13479;49.044;8.716;2023-04-06T16:41:54;11.90;;;5.70;;
25609;SDS011;13479;49.044;8.716;2023-04-06T16:44:20;12.27;;;6.05;;
25609;SDS011;13479;49.044;8.716;2023-04-06T16:46:46;12.27;;;5.75;;
25609;SDS011;13479;49.044;8.716;2023-04-06T16:49:11;10.13;;;5.70;;
25609;SDS011;13479;49.044;8.716;2023-04-06T16:51:38;14.27;;;5.93;;
25609;SDS011;13479;49.044;8.716;2023-04-06T16:54:05;10.07;;;5.53;;
25609;SDS011;13479;49.044;8.716;2023-04-06T16:56:30;10.50;;;5.30;;
25609;SDS011;13479;49.044;8.716;2023-04-06T16:58:56;11.57;;;5.32;;
25609;SDS011;13479;49.044;8.716;2023-04-06T17:01:22;8.82;;;5.05;;
25609;SDS011;13479;49.044;8.716;2023-04-06T17:03:50;12.60;;;5.30;;
25609;SDS011;13479;49.044;8.716;2023-04-06T17:06:16;11.63;;;5.70;;
25609;SDS011;13479;49.044;8.716;2023-04-06T17:08:44;10.73;;;5.85;;
25609;SDS011;13479;49.044;8.716;2023-04-06T17:11:10;14.50;;;6.80;;
25609;SDS011;13479;49.044;8.716;2023-04-06T17:13:37;11.23;;;5.80;;
25609;SDS011;13479;49.044;8.716;2023-04-06T17:16:03;10.35;;;5.57;;
25609;SDS011;13479;49.044;8.716;2023-04-06T17:18:28;11.40;;;5.68;;
25609;SDS011;13479;49.044;8.716;2023-04-06T17:20:54;13.68;;;5.82;;
25609;SDS011;13479;49.044;8.716;2023-04-06T17:23:24;11.32;;;4.95;;
25609;SDS011;13479;49.044;8.716;2023-04-06T17:25:50;15.25;;;5.82;;
25609;SDS011;13479;49.044;8.716;2023-04-06T17:28:16;11.98;;;5.57;;
25609;SDS011;13479;49.044;8.716;2023-04-06T17:30:42;11.32;;;5.25;;
25609;SDS011;13479;49.044;8.716;2023-04-06T17:33:07;14.27;;;5.60;;
25609;SDS011;13479;49.044;8.716;2023-04-06T17:35:33;9.15;;;4.72;;
25609;SDS011;13479;49.044;8.716;2023-04-06T17:37:59;8.02;;;4.55;;
25609;SDS011;13479;49.044;8.716;2023-04-06T17:40:25;9.05;;;4.50;;
25609;SDS011;13479;49.044;8.716;2023-04-06T17:42:50;7.50;;;3.55;;
25609;SDS011;13479;49.044;8.716;2023-04-06T17:45:16;6.10;;;3.17;;
25609;SDS011;13479;49.044;8.716;2023-04-06T17:47:42;10.18;;;4.10;;
25609;SDS011;13479;49.044;8.716;2023-04-06T17:50:07;10.95;;;4.32;;
25609;SDS011;13479;49.044;8.716;2023-04-06T17:52:33;6.85;;;3.88;;
25609;SDS011;13479;49.044;8.716;2023-04-06T17:54:58;8.98;;;4.32;;
25609;SDS011;13479;49.044;8.716;2023-04-06T17:57:23;8.50;;;3.72;;
25609;SDS011;13479;49.044;8.716;2023-04-06T17:59:49;5.75;;;3.30;;
25609;SDS011;13479;49.044;8.716;2023-04-06T18:02:14;7.65;;;3.53;;
25609;SDS011;13479;49.044;8.716;2023-04-06T18:04:40;5.50;;;3.55;;
25609;SDS011;13479;49.044;8.716;2023-04-06T18:07:07;5.78;;;3.05;;
25609;SDS011;13479;49.044;8.716;2023-04-06T18:09:33;7.80;;;3.58;;
25609;SDS011;13479;49.044;8.716;2023-04-06T18:11:58;8.73;;;3.83;;
25609;SDS011;13479;49.044;8.716;2023-04-06T18:14:25;6.10;;;3.35;;
25609;SDS011;13479;49.044;8.716;2023-04-06T18:16:50;5.82;;;3.20;;
25609;SDS011;13479;49.044;8.716;2023-04-06T18:19:15;7.47;;;2.90;;
25609;SDS011;13479;49.044;8.716;2023-04-06T18:21:41;8.00;;;3.28;;
25609;SDS011;13479;49.044;8.716;2023-04-06T18:24:06;6.20;;;3.53;;
25609;SDS011;13479;49.044;8.716;2023-04-06T18:26:32;8.55;;;3.67;;
25609;SDS011;13479;49.044;8.716;2023-04-06T18:28:57;6.40;;;3.53;;
25609;SDS011;13479;49.044;8.716;2023-04-06T18:31:23;9.65;;;4.03;;
25609;SDS011;13479;49.044;8.716;2023-04-06T18:33:48;8.45;;;3.97;;
25609;SDS011;13479;49.044;8.716;2023-04-06T18:36:13;7.18;;;4.05;;
25609;SDS011;13479;49.044;8.716;2023-04-06T18:38:40;6.38;;;3.67;;